Página principal
METAR-TAF:

METAR-TAF

Aeroportos :

Rabat, Marrocos

latitude: 34-03N, longitude: 006-46W, altura: 84 m

Observação actual do tempo

O boletim foi feito há 39 minutos, às 23:00 UTC
Vento calmo
Temperatura 17°C
Humidade 88%
Pressão 1021 hPa
Visibilidade: 6000 m
Poucas nuvensa uma altura de 1300 ft

METAR: GMME 192300Z 00000KT 6000 FEW013 17/15 Q1021 NOSIG

Hora: 00:39 (23:39 UTC)

Previsão

O boletim foi feito há 6 horas e 39 minutos, às 17:00 UTC
Previsão válida de 19 às 18 UTC a 20 às 24 UTC
Vento 10 kt de oeste
Visibilidade: 6000 m
Nuvens dispersasa uma altura de 1600 ft
Nuvens dispersasa uma altura de 8000 ft
Temporariamente
de 20 às 00 UTC a 20 às 06 UTC
Vento 8 kt de sudeste
Nuvens fragmentadasa uma altura de 1300 ft
Nuvens fragmentadasa uma altura de 1600 ft

TAF: GMME 191700Z 1918/2024 26010KT 6000 SCT016 SCT080 TEMPO 2000/2006 14008KT BKN013 BKN016

Observações e previsões do tempo de mais de 4000 aeroportos (mensagens METAR e TAF).

As estações disponíveis são os pontos amarelos e vermelhos sobre o mapa.

Mova o rato sobre o mapa para ver o nome da estação.

Depois clique no ponto para visualizar as observações e previsões meteorológicas.

Para alterar o mapa : clique nos botões verdes com uma cruz preta para aumentar o zoom; no botão verde com uma pitada de zoom; ou nas setas verdes para mapas adjacentes.


METAR-TAF: